sensor_id;sensor_type;location;lat;lon;timestamp;P1;durP1;ratioP1;P2;durP2;ratioP2
2976;SDS011;1498;51.500;7.440;2022-11-13T00:00:17;10.47;;;9.40;;
2976;SDS011;1498;51.500;7.440;2022-11-13T00:02:42;14.87;;;10.47;;
2976;SDS011;1498;51.500;7.440;2022-11-13T00:05:08;11.90;;;9.37;;
2976;SDS011;1498;51.500;7.440;2022-11-13T00:07:34;12.60;;;9.50;;
2976;SDS011;1498;51.500;7.440;2022-11-13T00:09:59;10.13;;;8.60;;
2976;SDS011;1498;51.500;7.440;2022-11-13T00:12:25;13.00;;;9.27;;
2976;SDS011;1498;51.500;7.440;2022-11-13T00:14:50;12.53;;;10.60;;
2976;SDS011;1498;51.500;7.440;2022-11-13T00:17:16;15.03;;;10.50;;
2976;SDS011;1498;51.500;7.440;2022-11-13T00:19:41;13.17;;;9.87;;
2976;SDS011;1498;51.500;7.440;2022-11-13T00:22:07;16.50;;;9.63;;
2976;SDS011;1498;51.500;7.440;2022-11-13T00:24:32;14.77;;;10.70;;
2976;SDS011;1498;51.500;7.440;2022-11-13T00:26:58;11.90;;;9.50;;
2976;SDS011;1498;51.500;7.440;2022-11-13T00:29:23;13.73;;;10.10;;
2976;SDS011;1498;51.500;7.440;2022-11-13T00:31:49;10.63;;;9.00;;
2976;SDS011;1498;51.500;7.440;2022-11-13T00:34:14;17.97;;;10.30;;
2976;SDS011;1498;51.500;7.440;2022-11-13T00:36:40;10.57;;;8.53;;
2976;SDS011;1498;51.500;7.440;2022-11-13T00:39:05;13.10;;;8.77;;
2976;SDS011;1498;51.500;7.440;2022-11-13T00:41:31;12.03;;;9.57;;
2976;SDS011;1498;51.500;7.440;2022-11-13T00:43:57;9.33;;;8.43;;
2976;SDS011;1498;51.500;7.440;2022-11-13T00:46:22;13.17;;;9.00;;
2976;SDS011;1498;51.500;7.440;2022-11-13T00:48:48;12.40;;;9.30;;
2976;SDS011;1498;51.500;7.440;2022-11-13T00:51:13;13.70;;;10.47;;
2976;SDS011;1498;51.500;7.440;2022-11-13T00:53:39;15.57;;;9.70;;
2976;SDS011;1498;51.500;7.440;2022-11-13T00:56:05;14.00;;;10.00;;
2976;SDS011;1498;51.500;7.440;2022-11-13T00:58:30;13.57;;;10.43;;
2976;SDS011;1498;51.500;7.440;2022-11-13T01:01:01;12.70;;;10.00;;
2976;SDS011;1498;51.500;7.440;2022-11-13T01:03:31;14.53;;;9.00;;
2976;SDS011;1498;51.500;7.440;2022-11-13T01:05:57;13.00;;;10.73;;
2976;SDS011;1498;51.500;7.440;2022-11-13T01:08:22;14.63;;;10.03;;
2976;SDS011;1498;51.500;7.440;2022-11-13T01:10:48;14.03;;;10.47;;
2976;SDS011;1498;51.500;7.440;2022-11-13T01:13:14;16.30;;;9.73;;
2976;SDS011;1498;51.500;7.440;2022-11-13T01:15:40;12.57;;;10.77;;
2976;SDS011;1498;51.500;7.440;2022-11-13T01:18:07;12.53;;;9.30;;
2976;SDS011;1498;51.500;7.440;2022-11-13T01:20:33;13.43;;;12.03;;
2976;SDS011;1498;51.500;7.440;2022-11-13T01:22:58;17.20;;;10.57;;
2976;SDS011;1498;51.500;7.440;2022-11-13T01:25:24;16.00;;;10.77;;
2976;SDS011;1498;51.500;7.440;2022-11-13T01:27:51;12.47;;;10.17;;
2976;SDS011;1498;51.500;7.440;2022-11-13T01:30:16;14.30;;;10.03;;
2976;SDS011;1498;51.500;7.440;2022-11-13T01:32:42;12.40;;;10.30;;
2976;SDS011;1498;51.500;7.440;2022-11-13T05:31:03;11.23;;;7.30;;
2976;SDS011;1498;51.500;7.440;2022-11-13T05:33:31;8.83;;;7.33;;
2976;SDS011;1498;51.500;7.440;2022-11-13T05:36:04;8.97;;;7.20;;
2976;SDS011;1498;51.500;7.440;2022-11-13T05:38:35;11.53;;;7.50;;
2976;SDS011;1498;51.500;7.440;2022-11-13T05:41:05;7.70;;;6.57;;
2976;SDS011;1498;51.500;7.440;2022-11-13T05:43:32;7.20;;;6.40;;
2976;SDS011;1498;51.500;7.440;2022-11-13T05:46:02;9.40;;;8.30;;
2976;SDS011;1498;51.500;7.440;2022-11-13T05:48:30;8.50;;;6.70;;
2976;SDS011;1498;51.500;7.440;2022-11-13T05:51:00;9.00;;;6.40;;
2976;SDS011;1498;51.500;7.440;2022-11-13T05:53:30;11.30;;;6.60;;
2976;SDS011;1498;51.500;7.440;2022-11-13T05:56:08;8.30;;;6.90;;
2976;SDS011;1498;51.500;7.440;2022-11-13T05:58:39;8.97;;;6.93;;
2976;SDS011;1498;51.500;7.440;2022-11-13T06:01:09;8.77;;;6.40;;
2976;SDS011;1498;51.500;7.440;2022-11-13T06:03:40;7.20;;;6.50;;
2976;SDS011;1498;51.500;7.440;2022-11-13T06:06:07;8.20;;;6.97;;
2976;SDS011;1498;51.500;7.440;2022-11-13T06:08:34;9.40;;;6.90;;
2976;SDS011;1498;51.500;7.440;2022-11-13T06:11:01;9.80;;;6.60;;
2976;SDS011;1498;51.500;7.440;2022-11-13T06:13:28;9.40;;;6.77;;
2976;SDS011;1498;51.500;7.440;2022-11-13T06:15:54;10.10;;;7.20;;
2976;SDS011;1498;51.500;7.440;2022-11-13T06:18:28;7.57;;;6.77;;
2976;SDS011;1498;51.500;7.440;2022-11-13T06:20:54;11.53;;;6.53;;
2976;SDS011;1498;51.500;7.440;2022-11-13T06:23:24;9.20;;;7.10;;
2976;SDS011;1498;51.500;7.440;2022-11-13T06:25:49;12.30;;;7.40;;
2976;SDS011;1498;51.500;7.440;2022-11-13T06:28:15;10.17;;;8.10;;
2976;SDS011;1498;51.500;7.440;2022-11-13T06:30:40;8.17;;;7.33;;
2976;SDS011;1498;51.500;7.440;2022-11-13T06:33:06;12.10;;;8.97;;
2976;SDS011;1498;51.500;7.440;2022-11-13T06:35:31;13.00;;;8.23;;
2976;SDS011;1498;51.500;7.440;2022-11-13T06:37:57;13.40;;;9.97;;
2976;SDS011;1498;51.500;7.440;2022-11-13T06:40:23;14.03;;;9.70;;
2976;SDS011;1498;51.500;7.440;2022-11-13T06:42:48;13.40;;;10.23;;
2976;SDS011;1498;51.500;7.440;2022-11-13T06:45:14;14.60;;;10.77;;
2976;SDS011;1498;51.500;7.440;2022-11-13T06:47:39;16.37;;;9.37;;
2976;SDS011;1498;51.500;7.440;2022-11-13T06:50:05;14.10;;;9.10;;
2976;SDS011;1498;51.500;7.440;2022-11-13T06:52:31;14.10;;;10.00;;
2976;SDS011;1498;51.500;7.440;2022-11-13T06:54:58;12.70;;;9.17;;
2976;SDS011;1498;51.500;7.440;2022-11-13T06:57:25;17.57;;;10.57;;
2976;SDS011;1498;51.500;7.440;2022-11-13T06:59:51;14.83;;;10.90;;
2976;SDS011;1498;51.500;7.440;2022-11-13T07:02:16;16.17;;;12.30;;
2976;SDS011;1498;51.500;7.440;2022-11-13T07:04:42;16.73;;;10.93;;
2976;SDS011;1498;51.500;7.440;2022-11-13T07:07:07;17.40;;;11.47;;
2976;SDS011;1498;51.500;7.440;2022-11-13T07:09:33;20.23;;;11.33;;
2976;SDS011;1498;51.500;7.440;2022-11-13T07:11:58;14.47;;;11.03;;
2976;SDS011;1498;51.500;7.440;2022-11-13T07:14:24;17.30;;;12.27;;
2976;SDS011;1498;51.500;7.440;2022-11-13T07:16:49;13.60;;;10.17;;
2976;SDS011;1498;51.500;7.440;2022-11-13T07:19:15;15.57;;;10.93;;
2976;SDS011;1498;51.500;7.440;2022-11-13T07:21:40;16.63;;;10.50;;
2976;SDS011;1498;51.500;7.440;2022-11-13T07:24:06;12.80;;;10.20;;
2976;SDS011;1498;51.500;7.440;2022-11-13T07:26:31;18.00;;;12.80;;
2976;SDS011;1498;51.500;7.440;2022-11-13T07:28:57;13.30;;;10.50;;
2976;SDS011;1498;51.500;7.440;2022-11-13T07:31:22;16.43;;;11.67;;
2976;SDS011;1498;51.500;7.440;2022-11-13T07:33:48;14.97;;;10.23;;
2976;SDS011;1498;51.500;7.440;2022-11-13T07:36:15;13.23;;;10.90;;
2976;SDS011;1498;51.500;7.440;2022-11-13T07:38:40;13.00;;;9.30;;
2976;SDS011;1498;51.500;7.440;2022-11-13T07:41:06;15.50;;;12.53;;
2976;SDS011;1498;51.500;7.440;2022-11-13T07:43:32;16.13;;;11.40;;
2976;SDS011;1498;51.500;7.440;2022-11-13T07:45:58;15.77;;;11.50;;
2976;SDS011;1498;51.500;7.440;2022-11-13T07:48:24;14.17;;;10.27;;
2976;SDS011;1498;51.500;7.440;2022-11-13T07:50:51;15.53;;;11.23;;
2976;SDS011;1498;51.500;7.440;2022-11-13T07:53:17;16.23;;;12.10;;
2976;SDS011;1498;51.500;7.440;2022-11-13T07:55:43;16.40;;;11.33;;
2976;SDS011;1498;51.500;7.440;2022-11-13T07:58:10;15.37;;;9.90;;
2976;SDS011;1498;51.500;7.440;2022-11-13T08:00:36;14.57;;;10.50;;
2976;SDS011;1498;51.500;7.440;2022-11-13T08:03:05;14.07;;;10.27;;
2976;SDS011;1498;51.500;7.440;2022-11-13T08:05:37;14.20;;;9.77;;
2976;SDS011;1498;51.500;7.440;2022-11-13T08:08:03;12.17;;;9.70;;
2976;SDS011;1498;51.500;7.440;2022-11-13T08:10:29;12.73;;;11.27;;
2976;SDS011;1498;51.500;7.440;2022-11-13T08:12:59;15.73;;;11.13;;
2976;SDS011;1498;51.500;7.440;2022-11-13T08:15:26;19.33;;;17.57;;
2976;SDS011;1498;51.500;7.440;2022-11-13T08:17:56;15.83;;;11.40;;
2976;SDS011;1498;51.500;7.440;2022-11-13T08:20:23;13.33;;;10.93;;
2976;SDS011;1498;51.500;7.440;2022-11-13T08:22:49;12.10;;;10.90;;
2976;SDS011;1498;51.500;7.440;2022-11-13T08:25:15;13.10;;;9.93;;
2976;SDS011;1498;51.500;7.440;2022-11-13T08:27:42;18.00;;;11.43;;
2976;SDS011;1498;51.500;7.440;2022-11-13T08:30:07;11.47;;;9.60;;
2976;SDS011;1498;51.500;7.440;2022-11-13T08:32:33;15.50;;;10.10;;
2976;SDS011;1498;51.500;7.440;2022-11-13T08:34:59;15.07;;;11.30;;
2976;SDS011;1498;51.500;7.440;2022-11-13T08:37:24;13.67;;;10.07;;
2976;SDS011;1498;51.500;7.440;2022-11-13T08:39:50;12.50;;;10.03;;
2976;SDS011;1498;51.500;7.440;2022-11-13T08:42:15;13.73;;;11.10;;
2976;SDS011;1498;51.500;7.440;2022-11-13T08:44:41;12.03;;;10.00;;
2976;SDS011;1498;51.500;7.440;2022-11-13T08:47:06;12.63;;;11.00;;
2976;SDS011;1498;51.500;7.440;2022-11-13T08:49:32;12.77;;;10.87;;
2976;SDS011;1498;51.500;7.440;2022-11-13T08:51:57;15.70;;;10.00;;
2976;SDS011;1498;51.500;7.440;2022-11-13T08:54:23;10.57;;;9.00;;
2976;SDS011;1498;51.500;7.440;2022-11-13T08:56:49;11.77;;;9.93;;
2976;SDS011;1498;51.500;7.440;2022-11-13T08:59:15;13.53;;;10.17;;
2976;SDS011;1498;51.500;7.440;2022-11-13T09:01:40;10.07;;;8.40;;
2976;SDS011;1498;51.500;7.440;2022-11-13T09:04:06;12.80;;;9.83;;
2976;SDS011;1498;51.500;7.440;2022-11-13T09:06:32;14.23;;;8.83;;
2976;SDS011;1498;51.500;7.440;2022-11-13T09:08:58;13.83;;;9.40;;
2976;SDS011;1498;51.500;7.440;2022-11-13T09:11:23;11.00;;;9.40;;
2976;SDS011;1498;51.500;7.440;2022-11-13T09:13:51;11.43;;;9.13;;
2976;SDS011;1498;51.500;7.440;2022-11-13T09:16:17;12.33;;;8.87;;
2976;SDS011;1498;51.500;7.440;2022-11-13T09:18:43;12.10;;;9.20;;
2976;SDS011;1498;51.500;7.440;2022-11-13T09:21:08;12.10;;;10.00;;
2976;SDS011;1498;51.500;7.440;2022-11-13T09:23:35;12.47;;;8.80;;
2976;SDS011;1498;51.500;7.440;2022-11-13T09:26:00;13.80;;;9.40;;
2976;SDS011;1498;51.500;7.440;2022-11-13T09:28:27;11.27;;;9.00;;
2976;SDS011;1498;51.500;7.440;2022-11-13T09:30:53;13.83;;;9.70;;
2976;SDS011;1498;51.500;7.440;2022-11-13T09:33:18;13.30;;;9.77;;
2976;SDS011;1498;51.500;7.440;2022-11-13T09:35:44;17.07;;;12.43;;
2976;SDS011;1498;51.500;7.440;2022-11-13T09:38:11;17.00;;;10.53;;
2976;SDS011;1498;51.500;7.440;2022-11-13T09:43:10;13.10;;;10.53;;
2976;SDS011;1498;51.500;7.440;2022-11-13T09:45:44;12.67;;;9.57;;
2976;SDS011;1498;51.500;7.440;2022-11-13T09:48:22;13.50;;;10.33;;
2976;SDS011;1498;51.500;7.440;2022-11-13T09:50:59;10.20;;;9.20;;
2976;SDS011;1498;51.500;7.440;2022-11-13T09:53:31;12.43;;;10.90;;
2976;SDS011;1498;51.500;7.440;2022-11-13T09:58:56;11.00;;;9.17;;
2976;SDS011;1498;51.500;7.440;2022-11-13T10:04:18;9.50;;;8.40;;
2976;SDS011;1498;51.500;7.440;2022-11-13T10:06:54;8.90;;;8.00;;
2976;SDS011;1498;51.500;7.440;2022-11-13T10:16:54;10.70;;;9.33;;
2976;SDS011;1498;51.500;7.440;2022-11-13T10:22:13;10.23;;;8.60;;
2976;SDS011;1498;51.500;7.440;2022-11-13T10:24:45;17.70;;;8.77;;
2976;SDS011;1498;51.500;7.440;2022-11-13T10:27:14;11.17;;;10.10;;
2976;SDS011;1498;51.500;7.440;2022-11-13T10:29:40;10.80;;;8.83;;
2976;SDS011;1498;51.500;7.440;2022-11-13T10:32:14;12.00;;;9.80;;
2976;SDS011;1498;51.500;7.440;2022-11-13T10:34:44;12.93;;;8.87;;
2976;SDS011;1498;51.500;7.440;2022-11-13T10:39:45;9.50;;;7.57;;
2976;SDS011;1498;51.500;7.440;2022-11-13T10:42:26;10.20;;;8.23;;
2976;SDS011;1498;51.500;7.440;2022-11-13T10:44:54;9.50;;;8.60;;
2976;SDS011;1498;51.500;7.440;2022-11-13T10:47:22;10.30;;;9.30;;
2976;SDS011;1498;51.500;7.440;2022-11-13T10:49:49;9.77;;;8.70;;
2976;SDS011;1498;51.500;7.440;2022-11-13T10:52:19;9.87;;;7.53;;
2976;SDS011;1498;51.500;7.440;2022-11-13T10:55:03;7.53;;;6.77;;
2976;SDS011;1498;51.500;7.440;2022-11-13T10:57:52;7.93;;;6.87;;
2976;SDS011;1498;51.500;7.440;2022-11-13T11:00:41;13.43;;;8.27;;
2976;SDS011;1498;51.500;7.440;2022-11-13T11:03:15;11.30;;;8.23;;
2976;SDS011;1498;51.500;7.440;2022-11-13T11:08:33;9.77;;;8.77;;
2976;SDS011;1498;51.500;7.440;2022-11-13T11:11:00;8.87;;;7.30;;
2976;SDS011;1498;51.500;7.440;2022-11-13T11:13:49;8.03;;;7.00;;
2976;SDS011;1498;51.500;7.440;2022-11-13T11:16:17;9.90;;;6.90;;
2976;SDS011;1498;51.500;7.440;2022-11-13T11:19:04;8.57;;;6.53;;
2976;SDS011;1498;51.500;7.440;2022-11-13T11:21:34;7.60;;;6.80;;
2976;SDS011;1498;51.500;7.440;2022-11-13T11:24:06;12.13;;;6.73;;
2976;SDS011;1498;51.500;7.440;2022-11-13T11:26:42;7.23;;;6.53;;
2976;SDS011;1498;51.500;7.440;2022-11-13T11:34:34;10.63;;;9.27;;
2976;SDS011;1498;51.500;7.440;2022-11-13T11:37:14;8.83;;;6.47;;
2976;SDS011;1498;51.500;7.440;2022-11-13T11:39:56;8.73;;;6.20;;
2976;SDS011;1498;51.500;7.440;2022-11-13T11:47:49;6.00;;;4.63;;
2976;SDS011;1498;51.500;7.440;2022-11-13T11:50:21;8.63;;;5.30;;
2976;SDS011;1498;51.500;7.440;2022-11-13T12:05:12;7.03;;;5.97;;
2976;SDS011;1498;51.500;7.440;2022-11-13T12:08:01;6.30;;;5.23;;
2976;SDS011;1498;51.500;7.440;2022-11-13T12:10:37;7.33;;;5.60;;
2976;SDS011;1498;51.500;7.440;2022-11-13T12:21:15;8.03;;;6.43;;
2976;SDS011;1498;51.500;7.440;2022-11-13T12:23:51;10.13;;;5.33;;
2976;SDS011;1498;51.500;7.440;2022-11-13T12:26:25;5.93;;;5.10;;
2976;SDS011;1498;51.500;7.440;2022-11-13T12:28:58;6.30;;;5.10;;
2976;SDS011;1498;51.500;7.440;2022-11-13T12:34:42;6.63;;;5.70;;
2976;SDS011;1498;51.500;7.440;2022-11-13T12:37:12;7.00;;;6.30;;
2976;SDS011;1498;51.500;7.440;2022-11-13T12:39:45;7.97;;;6.00;;
2976;SDS011;1498;51.500;7.440;2022-11-13T12:42:32;7.30;;;6.57;;
2976;SDS011;1498;51.500;7.440;2022-11-13T12:47:51;10.13;;;5.17;;
2976;SDS011;1498;51.500;7.440;2022-11-13T12:50:25;7.20;;;5.13;;
2976;SDS011;1498;51.500;7.440;2022-11-13T12:52:56;5.90;;;5.33;;
2976;SDS011;1498;51.500;7.440;2022-11-13T12:55:27;6.93;;;6.10;;
2976;SDS011;1498;51.500;7.440;2022-11-13T12:57:54;7.50;;;6.10;;
2976;SDS011;1498;51.500;7.440;2022-11-13T13:00:49;7.40;;;6.70;;
2976;SDS011;1498;51.500;7.440;2022-11-13T13:09:10;9.97;;;7.53;;
2976;SDS011;1498;51.500;7.440;2022-11-13T13:14:35;10.30;;;7.23;;
2976;SDS011;1498;51.500;7.440;2022-11-13T13:17:17;7.63;;;6.30;;
2976;SDS011;1498;51.500;7.440;2022-11-13T13:22:42;6.70;;;5.97;;
2976;SDS011;1498;51.500;7.440;2022-11-13T13:28:14;8.53;;;5.77;;
2976;SDS011;1498;51.500;7.440;2022-11-13T13:30:50;5.70;;;5.20;;
2976;SDS011;1498;51.500;7.440;2022-11-13T13:33:51;5.50;;;4.90;;
2976;SDS011;1498;51.500;7.440;2022-11-13T13:39:15;4.83;;;4.17;;
2976;SDS011;1498;51.500;7.440;2022-11-13T13:47:31;3.63;;;3.33;;
2976;SDS011;1498;51.500;7.440;2022-11-13T13:50:03;4.70;;;3.80;;
2976;SDS011;1498;51.500;7.440;2022-11-13T13:52:32;4.77;;;4.30;;
2976;SDS011;1498;51.500;7.440;2022-11-13T13:54:59;6.00;;;4.50;;
2976;SDS011;1498;51.500;7.440;2022-11-13T13:57:27;7.40;;;5.17;;
2976;SDS011;1498;51.500;7.440;2022-11-13T13:59:54;5.20;;;3.97;;
2976;SDS011;1498;51.500;7.440;2022-11-13T14:02:21;5.03;;;3.90;;
2976;SDS011;1498;51.500;7.440;2022-11-13T14:04:48;3.87;;;3.40;;
2976;SDS011;1498;51.500;7.440;2022-11-13T14:10:05;4.63;;;3.20;;
2976;SDS011;1498;51.500;7.440;2022-11-13T14:12:52;2.97;;;2.60;;
2976;SDS011;1498;51.500;7.440;2022-11-13T14:17:51;6.50;;;3.43;;
2976;SDS011;1498;51.500;7.440;2022-11-13T14:20:28;5.40;;;2.80;;
2976;SDS011;1498;51.500;7.440;2022-11-13T14:22:58;4.23;;;3.33;;
2976;SDS011;1498;51.500;7.440;2022-11-13T14:25:24;3.53;;;3.10;;
2976;SDS011;1498;51.500;7.440;2022-11-13T14:27:52;3.20;;;2.90;;
2976;SDS011;1498;51.500;7.440;2022-11-13T14:30:21;3.33;;;2.90;;
2976;SDS011;1498;51.500;7.440;2022-11-13T14:32:51;3.37;;;2.70;;
2976;SDS011;1498;51.500;7.440;2022-11-13T14:35:19;3.63;;;3.10;;
2976;SDS011;1498;51.500;7.440;2022-11-13T14:37:46;2.73;;;2.50;;
2976;SDS011;1498;51.500;7.440;2022-11-13T14:40:14;4.53;;;2.87;;
2976;SDS011;1498;51.500;7.440;2022-11-13T14:42:46;4.13;;;3.27;;
2976;SDS011;1498;51.500;7.440;2022-11-13T14:45:34;4.07;;;3.17;;
2976;SDS011;1498;51.500;7.440;2022-11-13T14:50:49;5.03;;;3.00;;
2976;SDS011;1498;51.500;7.440;2022-11-13T14:53:30;3.70;;;3.00;;
2976;SDS011;1498;51.500;7.440;2022-11-13T14:56:04;3.17;;;2.73;;
2976;SDS011;1498;51.500;7.440;2022-11-13T14:58:36;3.30;;;3.00;;
2976;SDS011;1498;51.500;7.440;2022-11-13T15:03:46;3.30;;;2.90;;
2976;SDS011;1498;51.500;7.440;2022-11-13T15:06:19;5.50;;;3.83;;
2976;SDS011;1498;51.500;7.440;2022-11-13T15:08:46;4.03;;;3.40;;
2976;SDS011;1498;51.500;7.440;2022-11-13T15:11:14;3.40;;;3.10;;
2976;SDS011;1498;51.500;7.440;2022-11-13T15:13:41;3.07;;;2.87;;
2976;SDS011;1498;51.500;7.440;2022-11-13T15:16:11;3.90;;;3.40;;
2976;SDS011;1498;51.500;7.440;2022-11-13T15:18:40;5.30;;;2.80;;
2976;SDS011;1498;51.500;7.440;2022-11-13T15:21:10;3.60;;;3.10;;
2976;SDS011;1498;51.500;7.440;2022-11-13T15:23:36;4.13;;;3.53;;
2976;SDS011;1498;51.500;7.440;2022-11-13T15:26:01;5.50;;;3.23;;
2976;SDS011;1498;51.500;7.440;2022-11-13T15:28:27;4.93;;;3.03;;
2976;SDS011;1498;51.500;7.440;2022-11-13T15:30:53;6.93;;;4.20;;
2976;SDS011;1498;51.500;7.440;2022-11-13T15:33:18;14.80;;;5.40;;
2976;SDS011;1498;51.500;7.440;2022-11-13T15:35:44;7.40;;;5.57;;
2976;SDS011;1498;51.500;7.440;2022-11-13T15:38:09;6.50;;;5.53;;
2976;SDS011;1498;51.500;7.440;2022-11-13T15:40:36;12.13;;;8.30;;
2976;SDS011;1498;51.500;7.440;2022-11-13T15:43:03;8.88;;;5.95;;
2976;SDS011;1498;51.500;7.440;2022-11-13T15:45:29;9.40;;;6.67;;
2976;SDS011;1498;51.500;7.440;2022-11-13T15:47:55;10.17;;;7.17;;
2976;SDS011;1498;51.500;7.440;2022-11-13T15:50:20;7.00;;;5.70;;
2976;SDS011;1498;51.500;7.440;2022-11-13T15:52:47;10.83;;;6.60;;
2976;SDS011;1498;51.500;7.440;2022-11-13T15:55:23;6.70;;;5.80;;
2976;SDS011;1498;51.500;7.440;2022-11-13T15:57:52;6.03;;;5.40;;
2976;SDS011;1498;51.500;7.440;2022-11-13T16:00:20;6.10;;;5.30;;
2976;SDS011;1498;51.500;7.440;2022-11-13T16:02:51;8.43;;;5.70;;
2976;SDS011;1498;51.500;7.440;2022-11-13T16:05:21;5.30;;;4.77;;
2976;SDS011;1498;51.500;7.440;2022-11-13T16:07:49;7.53;;;5.73;;
2976;SDS011;1498;51.500;7.440;2022-11-13T16:10:15;6.87;;;5.30;;
2976;SDS011;1498;51.500;7.440;2022-11-13T16:12:41;7.23;;;5.90;;
2976;SDS011;1498;51.500;7.440;2022-11-13T16:15:07;9.07;;;6.50;;
2976;SDS011;1498;51.500;7.440;2022-11-13T16:17:38;6.50;;;5.00;;
2976;SDS011;1498;51.500;7.440;2022-11-13T16:20:08;6.27;;;5.07;;
2976;SDS011;1498;51.500;7.440;2022-11-13T16:22:36;6.47;;;5.70;;
2976;SDS011;1498;51.500;7.440;2022-11-13T16:25:02;9.57;;;6.37;;
2976;SDS011;1498;51.500;7.440;2022-11-13T16:27:29;7.30;;;6.03;;
2976;SDS011;1498;51.500;7.440;2022-11-13T16:29:56;7.50;;;5.90;;
2976;SDS011;1498;51.500;7.440;2022-11-13T16:32:21;6.33;;;5.60;;
2976;SDS011;1498;51.500;7.440;2022-11-13T16:34:47;7.27;;;5.73;;
2976;SDS011;1498;51.500;7.440;2022-11-13T16:39:40;7.60;;;6.23;;
2976;SDS011;1498;51.500;7.440;2022-11-13T16:42:05;8.10;;;5.50;;
2976;SDS011;1498;51.500;7.440;2022-11-13T16:44:31;15.30;;;10.73;;
2976;SDS011;1498;51.500;7.440;2022-11-13T16:46:56;7.00;;;6.30;;
2976;SDS011;1498;51.500;7.440;2022-11-13T16:49:22;7.97;;;5.90;;
2976;SDS011;1498;51.500;7.440;2022-11-13T16:51:48;7.00;;;5.13;;
2976;SDS011;1498;51.500;7.440;2022-11-13T16:54:14;8.77;;;5.53;;
2976;SDS011;1498;51.500;7.440;2022-11-13T16:56:40;9.30;;;6.33;;
2976;SDS011;1498;51.500;7.440;2022-11-13T16:59:07;8.73;;;5.27;;
2976;SDS011;1498;51.500;7.440;2022-11-13T17:01:35;9.20;;;6.83;;
2976;SDS011;1498;51.500;7.440;2022-11-13T17:04:00;7.87;;;5.77;;
2976;SDS011;1498;51.500;7.440;2022-11-13T17:06:29;10.43;;;6.33;;
2976;SDS011;1498;51.500;7.440;2022-11-13T17:08:57;10.07;;;7.93;;
2976;SDS011;1498;51.500;7.440;2022-11-13T17:11:25;11.20;;;6.40;;
2976;SDS011;1498;51.500;7.440;2022-11-13T17:13:52;10.60;;;6.23;;
2976;SDS011;1498;51.500;7.440;2022-11-13T17:16:20;8.90;;;5.60;;
2976;SDS011;1498;51.500;7.440;2022-11-13T17:18:46;7.90;;;6.80;;
2976;SDS011;1498;51.500;7.440;2022-11-13T17:21:14;6.90;;;6.10;;
2976;SDS011;1498;51.500;7.440;2022-11-13T17:23:41;9.33;;;6.97;;
2976;SDS011;1498;51.500;7.440;2022-11-13T17:26:07;12.40;;;6.80;;
2976;SDS011;1498;51.500;7.440;2022-11-13T17:28:33;7.60;;;6.77;;
2976;SDS011;1498;51.500;7.440;2022-11-13T17:30:59;9.37;;;7.17;;
2976;SDS011;1498;51.500;7.440;2022-11-13T17:33:29;7.10;;;6.30;;
2976;SDS011;1498;51.500;7.440;2022-11-13T17:35:55;9.53;;;6.63;;
2976;SDS011;1498;51.500;7.440;2022-11-13T17:38:21;7.80;;;6.57;;
2976;SDS011;1498;51.500;7.440;2022-11-13T17:40:47;7.73;;;6.80;;
2976;SDS011;1498;51.500;7.440;2022-11-13T17:43:13;10.67;;;6.80;;
2976;SDS011;1498;51.500;7.440;2022-11-13T17:45:39;13.50;;;8.30;;
2976;SDS011;1498;51.500;7.440;2022-11-13T17:48:05;9.70;;;6.40;;
2976;SDS011;1498;51.500;7.440;2022-11-13T17:50:30;7.50;;;6.23;;
2976;SDS011;1498;51.500;7.440;2022-11-13T17:52:56;10.90;;;6.33;;
2976;SDS011;1498;51.500;7.440;2022-11-13T17:55:24;7.87;;;6.37;;
2976;SDS011;1498;51.500;7.440;2022-11-13T17:57:50;10.50;;;6.20;;
2976;SDS011;1498;51.500;7.440;2022-11-13T18:00:16;9.73;;;6.40;;
2976;SDS011;1498;51.500;7.440;2022-11-13T18:02:42;11.37;;;6.80;;
2976;SDS011;1498;51.500;7.440;2022-11-13T18:05:09;11.30;;;6.67;;
2976;SDS011;1498;51.500;7.440;2022-11-13T18:07:35;9.33;;;5.57;;
2976;SDS011;1498;51.500;7.440;2022-11-13T18:10:01;7.10;;;5.93;;
2976;SDS011;1498;51.500;7.440;2022-11-13T18:12:27;16.13;;;6.37;;
2976;SDS011;1498;51.500;7.440;2022-11-13T18:14:52;6.53;;;5.53;;
2976;SDS011;1498;51.500;7.440;2022-11-13T18:17:18;6.73;;;6.03;;
2976;SDS011;1498;51.500;7.440;2022-11-13T18:19:46;9.00;;;6.03;;
2976;SDS011;1498;51.500;7.440;2022-11-13T18:22:12;6.93;;;5.67;;
2976;SDS011;1498;51.500;7.440;2022-11-13T18:24:38;6.20;;;5.60;;
2976;SDS011;1498;51.500;7.440;2022-11-13T18:27:03;12.20;;;6.97;;
2976;SDS011;1498;51.500;7.440;2022-11-13T18:29:32;12.17;;;7.03;;
2976;SDS011;1498;51.500;7.440;2022-11-13T18:31:58;12.00;;;6.90;;
2976;SDS011;1498;51.500;7.440;2022-11-13T18:34:24;14.27;;;6.90;;
2976;SDS011;1498;51.500;7.440;2022-11-13T18:36:52;12.27;;;8.10;;
2976;SDS011;1498;51.500;7.440;2022-11-13T18:39:18;8.33;;;7.17;;
2976;SDS011;1498;51.500;7.440;2022-11-13T18:41:43;11.77;;;7.90;;
2976;SDS011;1498;51.500;7.440;2022-11-13T18:44:09;8.43;;;6.80;;
2976;SDS011;1498;51.500;7.440;2022-11-13T18:46:34;9.50;;;6.90;;
2976;SDS011;1498;51.500;7.440;2022-11-13T18:49:00;8.00;;;6.07;;
2976;SDS011;1498;51.500;7.440;2022-11-13T18:51:26;8.50;;;5.40;;
2976;SDS011;1498;51.500;7.440;2022-11-13T18:53:53;6.40;;;5.30;;
2976;SDS011;1498;51.500;7.440;2022-11-13T18:56:22;8.93;;;8.03;;
2976;SDS011;1498;51.500;7.440;2022-11-13T18:58:51;11.40;;;8.17;;
2976;SDS011;1498;51.500;7.440;2022-11-13T19:01:21;15.60;;;9.87;;
2976;SDS011;1498;51.500;7.440;2022-11-13T19:03:52;10.20;;;8.90;;
2976;SDS011;1498;51.500;7.440;2022-11-13T19:06:19;31.60;;;27.50;;
2976;SDS011;1498;51.500;7.440;2022-11-13T19:08:46;44.17;;;39.37;;
2976;SDS011;1498;51.500;7.440;2022-11-13T19:11:18;41.07;;;35.57;;
2976;SDS011;1498;51.500;7.440;2022-11-13T19:13:44;33.90;;;27.67;;
2976;SDS011;1498;51.500;7.440;2022-11-13T19:16:18;10.67;;;8.83;;
2976;SDS011;1498;51.500;7.440;2022-11-13T19:18:50;8.47;;;5.90;;
2976;SDS011;1498;51.500;7.440;2022-11-13T19:21:18;7.60;;;5.53;;
2976;SDS011;1498;51.500;7.440;2022-11-13T19:23:44;6.03;;;5.43;;
2976;SDS011;1498;51.500;7.440;2022-11-13T19:26:10;6.50;;;5.70;;
2976;SDS011;1498;51.500;7.440;2022-11-13T19:28:36;10.67;;;9.00;;
2976;SDS011;1498;51.500;7.440;2022-11-13T19:31:09;11.83;;;7.47;;
2976;SDS011;1498;51.500;7.440;2022-11-13T19:33:38;14.20;;;10.50;;
2976;SDS011;1498;51.500;7.440;2022-11-13T19:36:11;14.90;;;11.60;;
2976;SDS011;1498;51.500;7.440;2022-11-13T19:38:38;11.27;;;9.23;;
2976;SDS011;1498;51.500;7.440;2022-11-13T19:41:05;16.40;;;9.50;;
2976;SDS011;1498;51.500;7.440;2022-11-13T19:43:34;11.20;;;9.20;;
2976;SDS011;1498;51.500;7.440;2022-11-13T19:46:06;11.87;;;9.73;;
2976;SDS011;1498;51.500;7.440;2022-11-13T19:48:34;13.20;;;10.30;;
2976;SDS011;1498;51.500;7.440;2022-11-13T19:51:04;12.70;;;9.80;;
2976;SDS011;1498;51.500;7.440;2022-11-13T19:53:33;12.00;;;8.87;;
2976;SDS011;1498;51.500;7.440;2022-11-13T19:56:00;12.93;;;9.80;;
2976;SDS011;1498;51.500;7.440;2022-11-13T19:58:26;22.60;;;8.57;;
2976;SDS011;1498;51.500;7.440;2022-11-13T20:00:52;13.50;;;10.03;;
2976;SDS011;1498;51.500;7.440;2022-11-13T20:03:18;16.50;;;10.70;;
2976;SDS011;1498;51.500;7.440;2022-11-13T20:05:44;12.63;;;8.60;;
2976;SDS011;1498;51.500;7.440;2022-11-13T20:08:09;16.13;;;11.00;;
2976;SDS011;1498;51.500;7.440;2022-11-13T20:10:37;15.30;;;11.73;;
2976;SDS011;1498;51.500;7.440;2022-11-13T20:13:03;14.60;;;11.80;;
2976;SDS011;1498;51.500;7.440;2022-11-13T20:15:29;15.23;;;12.73;;
2976;SDS011;1498;51.500;7.440;2022-11-13T20:17:55;12.17;;;10.73;;
2976;SDS011;1498;51.500;7.440;2022-11-13T20:20:20;17.03;;;10.73;;
2976;SDS011;1498;51.500;7.440;2022-11-13T20:22:46;13.20;;;9.77;;
2976;SDS011;1498;51.500;7.440;2022-11-13T20:25:12;17.23;;;10.37;;
2976;SDS011;1498;51.500;7.440;2022-11-13T20:27:37;12.60;;;9.03;;
2976;SDS011;1498;51.500;7.440;2022-11-13T20:30:03;12.30;;;9.03;;
2976;SDS011;1498;51.500;7.440;2022-11-13T20:32:29;12.47;;;9.30;;
2976;SDS011;1498;51.500;7.440;2022-11-13T20:34:54;10.50;;;9.30;;
2976;SDS011;1498;51.500;7.440;2022-11-13T20:37:20;12.10;;;9.27;;
2976;SDS011;1498;51.500;7.440;2022-11-13T20:39:45;10.47;;;9.33;;
2976;SDS011;1498;51.500;7.440;2022-11-13T20:42:11;10.10;;;8.57;;
2976;SDS011;1498;51.500;7.440;2022-11-13T20:44:36;10.57;;;8.97;;